Time;durP1;ratioP1;P1;durP2;ratioP2;P2;SDS_P1;SDS_P2;PMS_P1;PMS_P2;Temp;Humidity;BMP_temperature;BMP_pressure;BME280_temperature;BME280_humidity;BME280_pressure;Samples;Min_cycle;Max_cycle;Signal;HPM_P1;HPM_P2
2021/06/11 00:00:11;;;;;;;8.80;6.57;;;;;;;14.04;100.00;96249.63;1052351;28;20070;-51
2021/06/11 00:00:42;;;;;;;9.73;6.50;;;;;;;14.02;100.00;96246.28;1052242;28;20012;-52
2021/06/11 00:01:12;;;;;;;7.88;6.13;;;;;;;14.02;100.00;96251.53;1052288;28;20016;-52
2021/06/11 00:01:43;;;;;;;7.32;6.53;;;;;;;14.03;100.00;96247.97;1052161;28;20118;-51
2021/06/11 00:02:14;;;;;;;7.20;6.35;;;;;;;13.99;100.00;96250.00;1053181;28;20016;-50
2021/06/11 00:02:45;;;;;;;7.65;6.25;;;;;;;14.00;100.00;96252.53;1053029;28;20013;-50
2021/06/11 00:03:16;;;;;;;6.70;6.00;;;;;;;13.98;100.00;96251.81;1053106;28;20099;-50
2021/06/11 00:03:46;;;;;;;9.63;6.20;;;;;;;13.98;100.00;96254.44;1056059;28;20427;-50
2021/06/11 00:04:17;;;;;;;8.48;6.72;;;;;;;13.96;100.00;96248.47;1057078;28;20369;-51
2021/06/11 00:04:48;;;;;;;9.88;6.68;;;;;;;13.97;100.00;96251.91;1056944;28;20408;-52
2021/06/11 00:05:18;;;;;;;8.43;6.38;;;;;;;13.95;100.00;96249.41;1057009;28;20018;-51
2021/06/11 00:05:49;;;;;;;8.05;6.32;;;;;;;13.95;100.00;96248.56;1057048;28;20428;-51
2021/06/11 00:06:20;;;;;;;8.75;7.15;;;;;;;13.95;100.00;96248.56;1057247;28;20014;-52
2021/06/11 00:06:50;;;;;;;7.47;6.63;;;;;;;13.93;100.00;96256.59;1056808;28;20024;-51
2021/06/11 00:07:21;;;;;;;7.53;6.32;;;;;;;13.88;100.00;96250.84;1053200;28;20012;-49
2021/06/11 00:07:52;;;;;;;8.57;6.60;;;;;;;13.87;100.00;96250.97;1052946;28;20027;-53
2021/06/11 00:08:22;;;;;;;8.55;6.95;;;;;;;13.85;100.00;96256.38;1052865;28;20044;-50
2021/06/11 00:08:53;;;;;;;7.93;6.43;;;;;;;13.84;100.00;96254.69;1052673;28;20362;-52
2021/06/11 00:09:23;;;;;;;8.30;6.13;;;;;;;13.85;100.00;96252.88;1052769;28;20111;-51
2021/06/11 00:09:54;;;;;;;10.35;6.63;;;;;;;13.75;100.00;96234.34;1052686;28;20051;-53
2021/06/11 00:10:24;;;;;;;7.90;6.55;;;;;;;13.87;100.00;96250.97;1052990;28;20474;-50
2021/06/11 00:10:55;;;;;;;8.73;6.90;;;;;;;13.82;100.00;96250.50;1053065;28;20366;-51
2021/06/11 00:11:26;;;;;;;7.80;6.97;;;;;;;13.80;100.00;96247.97;1053063;28;20027;-53
2021/06/11 00:11:56;;;;;;;9.20;6.90;;;;;;;13.76;100.00;96247.38;1053062;28;20012;-51
2021/06/11 00:12:27;;;;;;;9.50;6.93;;;;;;;13.77;100.00;96251.69;1052808;28;20024;-51
2021/06/11 00:12:58;;;;;;;11.90;7.32;;;;;;;13.77;100.00;96251.69;1053129;28;20167;-51
2021/06/11 00:13:28;;;;;;;7.13;6.38;;;;;;;13.77;100.00;96250.84;1052622;28;20016;-54
2021/06/11 00:13:59;;;;;;;8.70;7.43;;;;;;;13.77;100.00;96253.47;1057017;28;20106;-51
2021/06/11 00:14:30;;;;;;;7.85;6.75;;;;;;;13.77;100.00;96251.69;1057085;28;20019;-51
2021/06/11 00:15:00;;;;;;;8.00;7.03;;;;;;;13.77;100.00;96253.47;1057326;28;20020;-52
2021/06/11 00:15:31;;;;;;;9.00;7.78;;;;;;;13.75;100.00;96250.13;1057247;28;20468;-51
2021/06/11 00:16:01;;;;;;;8.73;7.20;;;;;;;13.75;100.00;96244.88;1057357;28;20016;-50
2021/06/11 00:16:32;;;;;;;10.23;7.07;;;;;;;13.75;100.00;96253.59;1057044;28;20046;-54
2021/06/11 00:17:03;;;;;;;8.70;7.03;;;;;;;13.77;100.00;96253.47;1057326;28;20103;-52
2021/06/11 00:17:33;;;;;;;7.43;6.47;;;;;;;13.76;100.00;96252.66;1057281;28;20495;-50
2021/06/11 00:18:04;;;;;;;7.60;6.72;;;;;;;13.75;100.00;96252.75;1057328;28;20099;-51
2021/06/11 00:18:35;;;;;;;9.20;6.78;;;;;;;13.74;100.00;96256.34;1056982;27;20028;-52
2021/06/11 00:19:05;;;;;;;10.70;7.82;;;;;;;13.75;100.00;96260.66;1056922;28;20066;-51
2021/06/11 00:19:36;;;;;;;8.10;7.25;;;;;;;13.76;100.00;96257.09;1056988;28;20058;-52
2021/06/11 00:20:08;;;;;;;8.65;7.75;;;;;;;13.75;100.00;96250.13;1057005;28;20439;-52
2021/06/11 00:20:38;;;;;;;8.77;6.60;;;;;;;13.78;100.00;96256.00;1056655;28;20076;-57
2021/06/11 00:21:09;;;;;;;7.90;7.10;;;;;;;13.79;100.00;96256.81;1057203;28;20047;-52
2021/06/11 00:21:39;;;;;;;8.05;6.82;;;;;;;13.81;100.00;96252.28;1057254;28;20099;-50
2021/06/11 00:22:10;;;;;;;10.07;7.25;;;;;;;13.82;100.00;96253.97;1057318;28;20084;-52
2021/06/11 00:22:41;;;;;;;7.57;6.50;;;;;;;13.84;100.00;96253.84;1056854;28;20027;-52
2021/06/11 00:23:11;;;;;;;7.68;5.55;;;;;;;13.85;100.00;96258.16;1057316;28;20081;-51
2021/06/11 00:23:42;;;;;;;8.50;6.75;;;;;;;13.84;100.00;96253.84;1056660;28;20385;-51
2021/06/11 00:24:12;;;;;;;9.57;7.00;;;;;;;13.85;100.00;96261.63;1057362;28;20106;-53
2021/06/11 00:24:43;;;;;;;7.50;6.68;;;;;;;13.87;100.00;96262.34;1056977;28;20106;-51
2021/06/11 00:25:16;;;;;;;7.60;6.47;;;;;;;13.85;100.00;96255.50;1057239;28;20119;-50
2021/06/11 00:25:47;;;;;;;7.18;6.47;;;;;;;13.80;100.00;96254.09;1057187;28;20019;-53
2021/06/11 00:26:18;;;;;;;8.23;6.65;;;;;;;13.79;100.00;96257.69;1057241;28;20542;-52
2021/06/11 00:26:48;;;;;;;7.95;7.03;;;;;;;13.78;100.00;96255.16;1056955;28;20389;-51
2021/06/11 00:27:19;;;;;;;7.97;6.68;;;;;;;13.79;100.00;96256.81;1057316;28;20119;-51
2021/06/11 00:27:50;;;;;;;8.02;7.05;;;;;;;13.77;100.00;96256.94;1057162;28;20031;-50
2021/06/11 00:28:21;;;;;;;8.27;7.43;;;;;;;13.76;100.00;96257.91;1057308;28;20095;-51
2021/06/11 00:28:52;;;;;;;8.43;7.30;;;;;;;13.74;100.00;96257.19;1056947;28;20493;-49
2021/06/11 00:29:22;;;;;;;8.32;7.05;;;;;;;13.71;100.00;96254.78;1057244;28;20020;-49
2021/06/11 00:29:53;;;;;;;9.70;6.75;;;;;;;13.69;100.00;96256.72;1057244;28;20023;-51
2021/06/11 00:30:25;;;;;;;9.82;7.40;;;;;;;13.70;100.00;96257.53;1057335;28;20032;-49
2021/06/11 00:30:55;;;;;;;9.18;6.93;;;;;;;13.72;100.00;96253.00;1056894;28;20368;-50
2021/06/11 00:31:26;;;;;;;10.25;7.28;;;;;;;13.73;100.00;96255.50;1057319;28;20084;-52
2021/06/11 00:31:56;;;;;;;9.40;7.53;;;;;;;13.73;100.00;96257.31;1057191;28;20638;-51
2021/06/11 00:32:27;;;;;;;10.93;7.03;;;;;;;13.75;100.00;96260.66;1057223;28;20081;-53
2021/06/11 00:32:59;;;;;;;8.10;7.18;;;;;;;13.77;100.00;96259.56;1056887;28;20023;-51
2021/06/11 00:33:30;;;;;;;9.77;7.20;;;;;;;13.77;100.00;96261.38;1056762;28;20072;-49
2021/06/11 00:34:01;;;;;;;10.13;6.57;;;;;;;13.75;100.00;96258.84;1057036;28;20140;-51
2021/06/11 00:34:31;;;;;;;9.02;7.00;;;;;;;13.76;100.00;96257.09;1056900;28;20138;-51
2021/06/11 00:35:04;;;;;;;9.40;7.55;;;;;;;13.77;100.00;96256.13;1052399;28;20024;-50
2021/06/11 00:35:35;;;;;;;10.00;7.70;;;;;;;13.74;100.00;96254.56;1052592;28;20024;-51
2021/06/11 00:36:06;;;;;;;8.02;7.15;;;;;;;13.74;100.00;96259.84;1052666;28;20059;-51
2021/06/11 00:36:37;;;;;;;9.57;7.28;;;;;;;13.74;100.00;96253.72;1052937;28;20020;-50
2021/06/11 00:37:07;;;;;;;10.15;7.13;;;;;;;13.75;100.00;96261.50;1052708;28;20096;-52
2021/06/11 00:37:38;;;;;;;11.60;6.72;;;;;;;13.75;100.00;96258.84;1053023;28;20099;-51
2021/06/11 00:38:09;;;;;;;8.50;7.05;;;;;;;13.75;100.00;96261.50;1053045;28;20098;-50
2021/06/11 00:38:39;;;;;;;10.45;6.68;;;;;;;13.79;100.00;96257.69;1052887;28;20020;-52
2021/06/11 00:39:10;;;;;;;7.57;6.85;;;;;;;13.75;100.00;96255.41;1052747;28;20024;-51
2021/06/11 00:39:40;;;;;;;9.13;7.40;;;;;;;13.73;100.00;96252.06;1052939;28;20034;-51
2021/06/11 00:40:11;;;;;;;7.35;6.53;;;;;;;13.73;100.00;96260.78;1053070;28;20035;-52
2021/06/11 00:40:44;;;;;;;8.23;7.43;;;;;;;13.75;100.00;96253.59;1052873;28;20013;-51
2021/06/11 00:41:15;;;;;;;9.35;6.97;;;;;;;13.75;100.00;96256.22;1051171;28;20503;-51
2021/06/11 00:41:45;;;;;;;8.23;6.55;;;;;;;13.74;100.00;96258.97;1048743;28;20054;-53
2021/06/11 00:42:16;;;;;;;7.72;6.90;;;;;;;13.74;100.00;96262.47;1048698;28;20020;-52
2021/06/11 00:42:46;;;;;;;8.70;6.80;;;;;;;13.74;100.00;96251.94;1048651;28;20032;-50
2021/06/11 00:43:17;;;;;;;9.85;7.32;;;;;;;13.73;100.00;96252.06;1048281;28;20020;-53
2021/06/11 00:43:48;;;;;;;8.05;7.22;;;;;;;13.75;100.00;96255.41;1047795;28;20017;-52
2021/06/11 00:44:18;;;;;;;8.20;7.40;;;;;;;13.73;100.00;96254.69;1048557;28;20449;-52
2021/06/11 00:44:49;;;;;;;8.25;7.35;;;;;;;13.72;100.00;96256.50;1048428;28;20525;-51
2021/06/11 00:45:19;;;;;;;8.90;7.03;;;;;;;13.73;100.00;96257.31;1048613;28;20126;-51
2021/06/11 00:45:50;;;;;;;8.82;7.35;;;;;;;13.71;100.00;96257.44;1048671;28;20020;-52
2021/06/11 00:46:20;;;;;;;7.60;6.22;;;;;;;13.73;100.00;96259.94;1048687;28;20020;-51
2021/06/11 00:46:51;;;;;;;10.57;6.95;;;;;;;13.73;100.00;96263.41;1048746;28;20044;-49
2021/06/11 00:47:22;;;;;;;7.93;6.63;;;;;;;13.70;100.00;96257.53;1051678;28;20027;-52
2021/06/11 00:47:52;;;;;;;7.90;6.50;;;;;;;13.70;100.00;96253.13;1057117;27;20109;-49
2021/06/11 00:48:23;;;;;;;8.82;6.78;;;;;;;13.68;100.00;96259.47;1057126;28;20027;-50
2021/06/11 00:48:54;;;;;;;8.98;6.90;;;;;;;13.69;100.00;96266.41;1057165;28;20012;-51
2021/06/11 00:49:24;;;;;;;18.13;6.85;;;;;;;13.68;100.00;96260.28;1057031;28;20520;-52
2021/06/11 00:49:55;;;;;;;8.95;6.55;;;;;;;13.66;100.00;96258.75;1056977;28;20027;-50
2021/06/11 00:50:26;;;;;;;8.20;6.40;;;;;;;13.68;100.00;96260.28;1057124;28;20023;-54
2021/06/11 00:50:56;;;;;;;8.77;6.07;;;;;;;13.68;100.00;96262.09;1057022;28;20027;-53
2021/06/11 00:51:27;;;;;;;9.20;6.85;;;;;;;13.53;100.00;96240.44;1057131;28;20497;-53
2021/06/11 00:51:58;;;;;;;7.20;6.35;;;;;;;13.65;100.00;96257.91;1056989;28;20020;-49
2021/06/11 00:52:31;;;;;;;7.47;6.25;;;;;;;13.68;100.00;96259.47;1057135;28;20019;-52
2021/06/11 00:53:03;;;;;;;6.75;6.05;;;;;;;13.67;100.00;96263.91;1057059;28;20023;-53
2021/06/11 00:53:33;;;;;;;8.20;6.78;;;;;;;13.67;100.00;96263.06;1056575;28;20098;-53
2021/06/11 00:54:04;;;;;;;7.55;6.45;;;;;;;13.63;100.00;96265.09;1056799;28;20031;-53
2021/06/11 00:54:35;;;;;;;8.25;6.38;;;;;;;13.65;100.00;96262.34;1057223;27;20481;-51
2021/06/11 00:55:06;;;;;;;7.47;6.65;;;;;;;13.66;100.00;96256.94;1056990;28;20115;-52
2021/06/11 00:55:37;;;;;;;7.72;6.35;;;;;;;13.69;100.00;96263.78;1057146;28;20534;-53
2021/06/11 00:56:08;;;;;;;9.10;6.55;;;;;;;13.72;100.00;96258.25;1053320;28;20061;-51
2021/06/11 00:56:38;;;;;;;7.55;6.72;;;;;;;13.69;100.00;96261.97;1052981;28;20049;-50
2021/06/11 00:57:09;;;;;;;9.90;7.35;;;;;;;13.69;100.00;96261.16;1052889;28;20505;-52
2021/06/11 00:57:40;;;;;;;8.45;7.28;;;;;;;13.70;100.00;96265.44;1052939;28;20022;-50
2021/06/11 00:58:12;;;;;;;10.93;7.20;;;;;;;13.69;100.00;96267.25;1053289;28;20038;-50
2021/06/11 00:58:43;;;;;;;9.10;7.22;;;;;;;13.68;100.00;96260.28;1052985;28;20406;-50
2021/06/11 00:59:13;;;;;;;9.80;6.72;;;;;;;13.67;100.00;96265.69;1052866;28;20024;-52
2021/06/11 00:59:44;;;;;;;16.17;6.97;;;;;;;13.64;100.00;96264.13;1052934;28;20398;-50
2021/06/11 01:00:15;;;;;;;8.63;6.57;;;;;;;13.65;100.00;96260.56;1052696;28;20054;-51
2021/06/11 01:00:47;;;;;;;7.30;6.47;;;;;;;13.63;100.00;96258.97;1052898;28;20061;-50
2021/06/11 01:01:18;;;;;;;9.32;6.65;;;;;;;13.61;100.00;96262.59;1052698;28;20509;-52
2021/06/11 01:01:49;;;;;;;8.70;7.03;;;;;;;13.58;100.00;96265.44;1052960;28;20016;-51
2021/06/11 01:02:22;;;;;;;9.82;6.95;;;;;;;13.58;100.00;96268.06;1052568;28;20112;-50
2021/06/11 01:02:52;;;;;;;8.90;7.20;;;;;;;13.57;100.00;96255.88;1052630;28;20051;-52
2021/06/11 01:03:23;;;;;;;10.05;7.28;;;;;;;13.58;100.00;96254.91;1053274;28;20016;-51
2021/06/11 01:03:54;;;;;;;9.95;7.40;;;;;;;13.61;100.00;96264.38;1052149;28;20016;-50
2021/06/11 01:04:24;;;;;;;9.35;7.40;;;;;;;13.61;100.00;96261.75;1052823;28;20359;-50
2021/06/11 01:04:55;;;;;;;8.68;7.35;;;;;;;13.61;100.00;96264.38;1056793;28;20086;-52
2021/06/11 01:05:25;;;;;;;10.32;7.60;;;;;;;13.61;100.00;96269.66;1056638;28;20024;-52
2021/06/11 01:05:56;;;;;;;8.80;7.28;;;;;;;13.61;100.00;96265.22;1057129;28;20023;-51
2021/06/11 01:06:26;;;;;;;11.50;7.90;;;;;;;13.59;100.00;96263.66;1056829;28;20118;-51
2021/06/11 01:06:57;;;;;;;9.77;7.35;;;;;;;13.57;100.00;96265.56;1055815;28;20031;-50
2021/06/11 01:07:28;;;;;;;13.02;7.85;;;;;;;13.53;100.00;96267.63;1052851;28;20016;-52
2021/06/11 01:07:58;;;;;;;8.90;8.00;;;;;;;13.51;100.00;96268.66;1053076;28;20024;-51
2021/06/11 01:08:29;;;;;;;14.10;8.48;;;;;;;13.52;100.00;96267.72;1052719;28;20074;-53
2021/06/11 01:08:59;;;;;;;10.40;8.50;;;;;;;13.49;100.00;96266.16;1052800;28;20126;-52
2021/06/11 01:09:30;;;;;;;10.38;8.10;;;;;;;13.47;100.00;96267.22;1052807;28;20020;-52
2021/06/11 01:10:00;;;;;;;12.73;8.40;;;;;;;13.51;100.00;96268.66;1052942;28;20009;-49
2021/06/11 01:10:31;;;;;;;10.55;8.50;;;;;;;13.50;100.00;96270.47;1052653;28;20470;-53
2021/06/11 01:11:01;;;;;;;11.07;8.32;;;;;;;13.51;100.00;96266.88;1052842;28;20416;-52
2021/06/11 01:11:32;;;;;;;11.18;8.50;;;;;;;13.53;100.00;96267.63;1052921;28;20020;-49
2021/06/11 01:12:04;;;;;;;10.82;8.57;;;;;;;13.54;100.00;96271.06;1052910;28;20028;-49
2021/06/11 01:12:35;;;;;;;11.85;8.52;;;;;;;13.54;100.00;96257.91;1052550;28;20480;-50
2021/06/11 01:13:05;;;;;;;8.90;7.85;;;;;;;13.51;100.00;96268.66;1052566;28;20040;-50
2021/06/11 01:13:36;;;;;;;11.02;8.45;;;;;;;13.50;100.00;96267.84;1052645;28;20046;-49
2021/06/11 01:14:07;;;;;;;10.35;8.40;;;;;;;13.50;100.00;96267.00;1056972;28;20067;-54
2021/06/11 01:14:37;;;;;;;13.52;9.25;;;;;;;13.48;100.00;96266.28;1056807;28;20017;-51
2021/06/11 01:15:09;;;;;;;10.77;8.25;;;;;;;13.47;100.00;96267.22;1056929;28;20019;-51
2021/06/11 01:15:40;;;;;;;8.73;7.78;;;;;;;13.45;100.00;96264.72;1057015;28;20026;-52
2021/06/11 01:16:10;;;;;;;9.07;8.18;;;;;;;13.40;100.00;96262.44;1057149;27;20016;-52
2021/06/11 01:16:41;;;;;;;9.35;8.25;;;;;;;13.40;100.00;96267.72;1056477;28;20086;-52
2021/06/11 01:17:11;;;;;;;9.25;8.23;;;;;;;13.40;100.00;96270.34;1056671;28;20016;-52
2021/06/11 01:17:42;;;;;;;9.48;8.30;;;;;;;13.38;100.00;96268.75;1056752;28;20512;-51
2021/06/11 01:18:13;;;;;;;8.38;7.38;;;;;;;13.41;100.00;96272.00;1056774;28;20066;-50
2021/06/11 01:18:43;;;;;;;10.05;8.45;;;;;;;13.39;100.00;96275.72;1056878;28;20380;-52
2021/06/11 01:19:14;;;;;;;11.10;8.27;;;;;;;13.39;100.00;96271.28;1056996;28;20491;-52
2021/06/11 01:19:46;;;;;;;12.57;8.52;;;;;;;13.36;100.00;96271.53;1056709;28;20393;-49
2021/06/11 01:20:17;;;;;;;11.00;8.15;;;;;;;13.37;100.00;96275.00;1056750;28;20026;-54
2021/06/11 01:20:48;;;;;;;10.52;8.00;;;;;;;13.35;100.00;96272.47;1056588;28;20016;-51
2021/06/11 01:21:18;;;;;;;10.23;8.00;;;;;;;13.33;100.00;96274.41;1056651;28;20019;-49
2021/06/11 01:21:54;;;;;;;11.20;7.65;;;;;;;13.32;100.00;96272.69;1057136;28;20012;-51
2021/06/11 01:22:36;;;;;;;10.52;7.97;;;;;;;13.31;100.00;96273.69;1057113;28;20019;-50
2021/06/11 01:23:27;;;;;;;9.80;7.93;;;;;;;13.32;100.00;96280.59;1056720;28;20034;-52
2021/06/11 01:24:13;;;;;;;;;;;;;;;13.37;100.00;96278.47;1057048;28;20024;-52
2021/06/11 01:24:57;;;;;;;11.23;7.82;;;;;;;13.36;100.00;96278.56;1057064;28;19930;-51
2021/06/11 01:25:47;;;;;;;11.00;7.53;;;;;;;13.32;100.00;96277.97;1056803;28;20027;-50
2021/06/11 01:26:29;;;;;;;10.05;8.65;;;;;;;13.30;100.00;96279.88;1056951;28;20022;-51
2021/06/11 01:27:00;;;;;;;11.35;8.43;;;;;;;13.29;100.00;96277.31;1056866;28;20132;-51
2021/06/11 01:27:30;;;;;;;10.48;8.73;;;;;;;13.25;100.00;96278.53;1056925;28;20004;-51
2021/06/11 01:28:02;;;;;;;10.90;8.32;;;;;;;13.21;100.00;96284.03;1057010;28;20363;-50
2021/06/11 01:28:33;;;;;;;11.88;9.10;;;;;;;13.19;100.00;96278.06;1057007;28;20392;-52
2021/06/11 01:29:06;;;;;;;9.88;8.88;;;;;;;13.19;100.00;96275.41;1056741;28;20011;-52
2021/06/11 01:29:36;;;;;;;12.95;10.02;;;;;;;13.21;100.00;96277.91;1057012;28;20018;-49
2021/06/11 01:30:09;;;;;;;9.95;8.77;;;;;;;13.18;100.00;96273.72;1057001;28;20515;-49
2021/06/11 01:30:40;;;;;;;10.15;8.77;;;;;;;13.16;100.00;96275.63;1056994;28;20039;-53
2021/06/11 01:31:10;;;;;;;10.95;9.25;;;;;;;13.14;100.00;96276.72;1056839;28;20019;-49
2021/06/11 01:31:45;;;;;;;14.15;9.68;;;;;;;13.13;100.00;96281.13;1056888;28;20099;-49
2021/06/11 01:32:16;;;;;;;10.27;8.38;;;;;;;13.12;100.00;96273.34;1056997;28;20469;-50
2021/06/11 01:32:47;;;;;;;14.45;9.02;;;;;;;13.12;100.00;96274.19;1057013;28;20018;-50
2021/06/11 01:33:18;;;;;;;12.05;9.05;;;;;;;13.14;100.00;96276.72;1056473;28;20082;-50
2021/06/11 01:33:51;;;;;;;11.25;8.90;;;;;;;13.16;100.00;96272.19;1056016;28;20135;-50
2021/06/11 01:34:31;;;;;;;11.75;8.95;;;;;;;13.17;100.00;96274.66;1056742;28;20022;-50
2021/06/11 01:35:04;;;;;;;11.15;8.52;;;;;;;13.18;100.00;96273.72;1052657;28;20398;-51
2021/06/11 01:35:40;;;;;;;11.40;9.60;;;;;;;13.20;100.00;96276.25;1052087;28;20015;-49
2021/06/11 01:36:11;;;;;;;11.32;9.23;;;;;;;13.20;100.00;96271.81;1052865;28;20020;-49
2021/06/11 01:36:45;;;;;;;11.02;8.77;;;;;;;13.21;100.00;96268.25;1052823;28;20019;-52
2021/06/11 01:37:18;;;;;;;10.32;8.50;;;;;;;13.22;100.00;96263.81;1052697;28;20024;-50
2021/06/11 01:37:53;;;;;;;12.15;8.68;;;;;;;13.25;100.00;96275.88;1052510;28;20112;-50
2021/06/11 01:38:25;;;;;;;11.27;8.98;;;;;;;13.25;100.00;96268.84;1052480;28;20501;-51
2021/06/11 01:38:56;;;;;;;11.95;8.82;;;;;;;13.26;100.00;96269.69;1048256;28;20008;-51
2021/06/11 01:39:26;;;;;;;9.95;8.93;;;;;;;13.26;100.00;96261.78;1048033;28;20474;-50
2021/06/11 01:39:57;;;;;;;10.45;9.10;;;;;;;13.22;100.00;96264.66;1048452;28;20020;-51
2021/06/11 01:40:29;;;;;;;10.10;9.07;;;;;;;13.20;100.00;96271.00;1052424;28;20016;-52
2021/06/11 01:40:59;;;;;;;11.07;8.82;;;;;;;13.18;100.00;96271.09;1052723;28;20493;-50
2021/06/11 01:41:30;;;;;;;12.45;9.07;;;;;;;13.18;100.00;96271.09;1048931;28;20099;-53
2021/06/11 01:42:00;;;;;;;10.75;9.18;;;;;;;13.18;100.00;96273.72;1048400;28;20091;-50
2021/06/11 01:42:35;;;;;;;10.38;8.90;;;;;;;13.15;100.00;96279.22;1048504;28;20050;-50
2021/06/11 01:43:05;;;;;;;11.45;8.88;;;;;;;13.12;100.00;96271.56;1048449;28;20013;-50
2021/06/11 01:43:36;;;;;;;11.98;9.45;;;;;;;13.13;100.00;96272.41;1047945;28;20023;-53
2021/06/11 01:44:08;;;;;;;10.27;9.13;;;;;;;13.11;100.00;96274.31;1048402;28;20012;-51
2021/06/11 01:44:38;;;;;;;10.65;9.43;;;;;;;13.08;100.00;96277.16;1048668;28;20378;-50
2021/06/11 01:45:10;;;;;;;10.05;9.00;;;;;;;13.07;100.00;96272.88;1048441;28;20016;-50
2021/06/11 01:45:41;;;;;;;12.75;9.68;;;;;;;13.07;100.00;96276.34;1048259;28;20462;-51
2021/06/11 01:46:13;;;;;;;10.95;9.15;;;;;;;13.06;100.00;96279.91;1048467;28;20009;-49
2021/06/11 01:46:44;;;;;;;12.00;10.00;;;;;;;13.05;100.00;96278.25;1048573;28;20539;-50
2021/06/11 01:47:15;;;;;;;11.35;9.90;;;;;;;13.05;100.00;96280.88;1049335;28;20025;-51
2021/06/11 01:47:47;;;;;;;15.52;10.68;;;;;;;13.02;100.00;96279.28;1056854;28;20020;-50
2021/06/11 01:48:17;;;;;;;11.55;9.55;;;;;;;13.03;100.00;96280.16;1056748;28;20050;-50
2021/06/11 01:48:48;;;;;;;12.82;9.68;;;;;;;13.05;100.00;96283.50;1056893;28;20035;-50
2021/06/11 01:49:18;;;;;;;12.00;9.30;;;;;;;13.04;100.00;96279.19;1056704;28;20015;-50
2021/06/11 01:49:49;;;;;;;14.30;9.80;;;;;;;13.04;100.00;96281.81;1056881;28;20027;-54
2021/06/11 01:50:24;;;;;;;14.13;9.40;;;;;;;13.02;100.00;96278.47;1056790;28;20022;-49
2021/06/11 01:50:55;;;;;;;11.80;9.65;;;;;;;12.99;100.00;96283.97;1056960;28;20098;-51
2021/06/11 01:51:26;;;;;;;11.60;9.70;;;;;;;12.97;100.00;96285.84;1056902;28;20054;-51
2021/06/11 01:51:57;;;;;;;15.20;9.07;;;;;;;12.98;100.00;96275.22;1056840;28;20388;-51
2021/06/11 01:52:28;;;;;;;10.75;9.40;;;;;;;12.98;100.00;96282.28;1056834;28;20018;-51
2021/06/11 01:53:00;;;;;;;13.07;9.90;;;;;;;12.97;100.00;96278.81;1056970;28;20016;-53
2021/06/11 01:53:30;;;;;;;10.88;9.25;;;;;;;12.96;100.00;96281.56;1056317;28;20520;-53
2021/06/11 01:54:01;;;;;;;13.85;10.55;;;;;;;12.93;100.00;96282.63;1056570;28;20026;-49
2021/06/11 01:54:32;;;;;;;13.55;10.43;;;;;;;12.92;100.00;96280.13;1056767;28;20024;-50
2021/06/11 01:55:03;;;;;;;14.10;10.38;;;;;;;12.93;100.00;96281.78;1056923;28;20015;-50
2021/06/11 01:55:34;;;;;;;13.75;10.38;;;;;;;12.93;100.00;96276.50;1056795;28;20028;-49
2021/06/11 01:56:04;;;;;;;12.48;10.95;;;;;;;12.93;100.00;96274.75;1053599;28;20059;-52
2021/06/11 01:56:35;;;;;;;14.55;10.60;;;;;;;12.91;100.00;96276.63;1052679;28;20016;-50
2021/06/11 01:57:06;;;;;;;13.18;11.27;;;;;;;12.89;100.00;96275.91;1052713;28;20048;-50
2021/06/11 01:57:37;;;;;;;13.43;10.18;;;;;;;12.91;100.00;96281.88;1052562;28;20012;-50
2021/06/11 01:58:08;;;;;;;11.43;9.82;;;;;;;12.92;100.00;96277.47;1052542;28;20453;-49
2021/06/11 01:58:40;;;;;;;11.63;9.90;;;;;;;12.93;100.00;96273.88;1052453;28;20019;-50
2021/06/11 01:59:10;;;;;;;11.82;10.63;;;;;;;12.94;100.00;96278.22;1052651;28;20031;-49
2021/06/11 01:59:41;;;;;;;12.50;10.77;;;;;;;12.94;100.00;96272.94;1052674;28;20023;-51
2021/06/11 02:00:13;;;;;;;11.35;9.68;;;;;;;12.96;100.00;96268.41;1052369;28;20125;-50
2021/06/11 02:00:45;;;;;;;14.75;9.55;;;;;;;12.97;100.00;96270.06;1052141;28;20177;-50
2021/06/11 02:01:17;;;;;;;12.35;10.63;;;;;;;12.97;100.00;96277.97;1052223;28;20028;-50
2021/06/11 02:01:47;;;;;;;12.60;9.85;;;;;;;12.96;100.00;96274.50;1052288;28;20015;-49
2021/06/11 02:02:19;;;;;;;10.70;9.52;;;;;;;12.94;100.00;96272.94;1052574;28;20012;-51
2021/06/11 02:02:49;;;;;;;11.70;10.45;;;;;;;12.96;100.00;96279.75;1052656;28;20110;-49
2021/06/11 02:03:22;;;;;;;15.48;10.95;;;;;;;12.97;100.00;96276.19;1053027;28;20038;-50
2021/06/11 02:03:53;;;;;;;12.75;11.02;;;;;;;12.97;100.00;96281.44;1056271;28;20050;-53
2021/06/11 02:04:23;;;;;;;15.32;10.25;;;;;;;12.92;100.00;96280.13;1056730;28;20485;-52
2021/06/11 02:04:54;;;;;;;13.23;10.48;;;;;;;12.91;100.00;96281.88;1056738;28;20038;-53
2021/06/11 02:05:25;;;;;;;11.43;9.63;;;;;;;12.89;100.00;96285.59;1056673;28;20038;-49
2021/06/11 02:05:55;;;;;;;13.68;9.95;;;;;;;12.92;100.00;96286.19;1056891;28;20016;-53
2021/06/11 02:06:26;;;;;;;13.10;10.45;;;;;;;12.89;100.00;96275.91;1056772;28;20083;-52
2021/06/11 02:06:57;;;;;;;12.07;10.57;;;;;;;12.90;100.00;96289.91;1055462;28;20032;-52
2021/06/11 02:07:27;;;;;;;11.38;10.18;;;;;;;12.91;100.00;96286.31;1052544;28;20020;-52
2021/06/11 02:07:58;;;;;;;11.20;9.27;;;;;;;12.91;100.00;96286.31;1052779;28;20422;-51
2021/06/11 02:08:29;;;;;;;13.20;9.75;;;;;;;12.89;100.00;96286.41;1052635;28;20012;-49
2021/06/11 02:08:59;;;;;;;12.25;9.30;;;;;;;12.92;100.00;96286.19;1052486;28;20073;-52
2021/06/11 02:09:30;;;;;;;11.73;10.43;;;;;;;12.91;100.00;96284.50;1052487;28;20381;-50
2021/06/11 02:10:00;;;;;;;12.77;10.70;;;;;;;12.90;100.00;96284.66;1052634;28;20021;-49
2021/06/11 02:10:31;;;;;;;12.32;10.30;;;;;;;12.90;100.00;96284.66;1052716;28;20089;-49
2021/06/11 02:11:01;;;;;;;13.30;11.00;;;;;;;12.86;100.00;96284.03;1052464;28;20012;-51
2021/06/11 02:11:32;;;;;;;12.40;10.75;;;;;;;12.86;100.00;96278.78;1052559;28;20012;-52
2021/06/11 02:12:04;;;;;;;13.50;10.57;;;;;;;12.87;100.00;96282.25;1052405;28;20023;-52
2021/06/11 02:12:34;;;;;;;12.43;11.13;;;;;;;12.87;100.00;96284.88;1052239;28;20023;-52
2021/06/11 02:13:05;;;;;;;11.38;10.18;;;;;;;12.87;100.00;96284.88;1052091;28;20031;-50
2021/06/11 02:13:35;;;;;;;11.18;9.98;;;;;;;12.87;100.00;96282.25;1052623;28;20024;-51
2021/06/11 02:14:06;;;;;;;14.18;10.75;;;;;;;12.84;100.00;96281.53;1056678;28;20016;-50
2021/06/11 02:14:36;;;;;;;11.10;10.00;;;;;;;12.82;100.00;96279.97;1056838;28;20381;-48
2021/06/11 02:15:08;;;;;;;13.80;9.30;;;;;;;12.81;100.00;96280.91;1056583;28;20042;-50
2021/06/11 02:15:40;;;;;;;12.68;9.35;;;;;;;12.80;100.00;96280.06;1056703;28;20015;-49
2021/06/11 02:16:11;;;;;;;13.63;10.82;;;;;;;12.78;100.00;96281.97;1056928;28;20362;-50
2021/06/11 02:16:43;;;;;;;17.50;11.52;;;;;;;12.79;100.00;96283.63;1056771;28;20091;-50
2021/06/11 02:17:13;;;;;;;13.48;11.30;;;;;;;12.85;100.00;96284.97;1056579;28;20426;-51
2021/06/11 02:17:45;;;;;;;15.50;10.77;;;;;;;12.88;100.00;96281.31;1056743;28;20089;-50
2021/06/11 02:18:16;;;;;;;12.02;10.02;;;;;;;12.88;100.00;96274.25;1056832;28;20027;-50
2021/06/11 02:18:46;;;;;;;12.70;9.55;;;;;;;12.87;100.00;96282.25;1056824;28;20528;-51
2021/06/11 02:19:18;;;;;;;13.73;9.63;;;;;;;12.84;100.00;96288.56;1056617;28;20573;-50
2021/06/11 02:19:48;;;;;;;13.73;11.00;;;;;;;12.81;100.00;96281.72;1056799;28;20023;-49
2021/06/11 02:20:20;;;;;;;15.63;10.52;;;;;;;12.81;100.00;96278.28;1056776;28;20043;-50
2021/06/11 02:20:52;;;;;;;12.77;11.00;;;;;;;12.79;100.00;96280.19;1056832;28;20022;-51
2021/06/11 02:21:23;;;;;;;14.13;10.95;;;;;;;12.78;100.00;96284.59;1056457;28;20110;-49
2021/06/11 02:21:55;;;;;;;13.48;11.13;;;;;;;12.77;100.00;96282.09;1056844;28;20026;-49
2021/06/11 02:22:25;;;;;;;13.68;11.15;;;;;;;12.75;100.00;96287.44;1056688;28;20020;-51
2021/06/11 02:22:56;;;;;;;15.10;11.05;;;;;;;12.74;100.00;96279.66;1056770;28;20020;-52
2021/06/11 02:23:26;;;;;;;12.32;10.75;;;;;;;12.73;100.00;96280.66;1056249;28;20040;-50
2021/06/11 02:23:57;;;;;;;12.15;10.43;;;;;;;12.72;100.00;96279.78;1056390;28;20019;-50
2021/06/11 02:24:27;;;;;;;16.48;11.32;;;;;;;12.73;100.00;96285.91;1056740;28;20011;-50